createdAt,value
2019-04-16T00:02:18.535Z,55.80
2019-04-16T00:05:13.290Z,49.53
2019-04-16T00:07:47.336Z,35.47
2019-04-16T00:10:39.575Z,39.67
2019-04-16T00:13:28.560Z,28.37
2019-04-16T00:15:59.094Z,32.57
2019-04-16T00:18:28.952Z,37.73
2019-04-16T00:21:29.734Z,34.97
2019-04-16T00:24:19.402Z,30.33
2019-04-16T00:26:57.808Z,31.90
2019-04-16T00:29:25.484Z,31.37
2019-04-16T00:32:09.415Z,29.70
2019-04-16T00:34:39.119Z,31.97
2019-04-16T00:37:08.841Z,35.47
2019-04-16T00:39:39.000Z,39.67
2019-04-16T00:42:08.710Z,31.90
2019-04-16T00:44:38.632Z,33.10
2019-04-16T00:47:08.489Z,36.53
2019-04-16T00:49:38.282Z,35.97
2019-04-16T00:52:08.329Z,27.63
2019-04-16T00:54:39.337Z,26.27
2019-04-16T00:57:09.879Z,31.93
2019-04-16T00:59:39.742Z,32.60
2019-04-16T01:02:09.826Z,27.73
2019-04-16T01:04:39.515Z,28.33
2019-04-16T01:07:09.503Z,30.37
2019-04-16T01:09:39.479Z,30.20
2019-04-16T01:12:09.395Z,50.43
2019-04-16T01:14:39.108Z,51.87
2019-04-16T01:17:08.966Z,52.03
2019-04-16T01:19:41.200Z,38.57
2019-04-16T01:22:10.801Z,37.63
2019-04-16T01:24:42.517Z,45.77
2019-04-16T01:27:12.668Z,43.40
2019-04-16T01:29:42.362Z,46.70
2019-04-16T01:32:25.862Z,51.57
2019-04-16T01:35:23.329Z,46.73
2019-04-16T01:38:27.913Z,65.53
2019-04-16T01:41:03.201Z,61.80
2019-04-16T01:43:33.123Z,61.73
2019-04-16T01:46:03.016Z,48.93
2019-04-16T01:48:32.765Z,43.53
2019-04-16T01:51:02.751Z,41.10
2019-04-16T01:53:32.534Z,40.73
2019-04-16T01:56:02.187Z,42.77
2019-04-16T01:58:33.896Z,32.40
2019-04-16T02:01:04.030Z,32.33
2019-04-16T02:03:33.927Z,36.03
2019-04-16T02:06:04.127Z,26.57
2019-04-16T02:08:34.009Z,30.80
2019-04-16T02:11:04.059Z,32.70
2019-04-16T02:13:34.299Z,38.83
2019-04-16T02:16:04.567Z,28.37
2019-04-16T02:18:34.568Z,31.37
2019-04-16T02:21:04.355Z,37.93
2019-04-16T02:23:34.918Z,30.27
2019-04-16T02:26:05.265Z,29.50
2019-04-16T02:28:34.989Z,24.87
2019-04-16T02:31:08.921Z,37.00
2019-04-16T02:33:36.291Z,32.83
2019-04-16T02:36:07.020Z,31.13
2019-04-16T02:38:36.769Z,29.37
2019-04-16T02:41:06.720Z,39.93
2019-04-16T02:43:40.981Z,35.33
2019-04-16T02:46:07.928Z,33.93
2019-04-16T02:48:37.849Z,35.13
2019-04-16T02:51:26.669Z,36.03
2019-04-16T02:54:12.222Z,35.00
2019-04-16T02:57:01.109Z,27.43
2019-04-16T02:59:34.574Z,32.77
2019-04-16T03:02:15.018Z,33.23
2019-04-16T03:04:48.925Z,32.23
2019-04-16T03:07:18.820Z,39.63
2019-04-16T03:10:00.526Z,34.17
2019-04-16T03:12:20.965Z,42.83
2019-04-16T03:14:51.509Z,51.00
2019-04-16T03:17:46.328Z,35.27
2019-04-16T03:20:17.025Z,40.63
2019-04-16T03:22:46.904Z,35.83
2019-04-16T03:25:16.675Z,36.87
2019-04-16T03:27:47.067Z,47.20
2019-04-16T03:30:16.952Z,34.93
2019-04-16T03:32:51.667Z,41.07
2019-04-16T03:35:25.466Z,40.20
2019-04-16T03:37:52.849Z,61.60
2019-04-16T03:40:25.548Z,75.47
2019-04-16T03:42:58.859Z,66.83
2019-04-16T03:45:25.516Z,83.40
2019-04-16T03:47:55.152Z,84.90
2019-04-16T03:50:24.928Z,69.83
2019-04-16T03:52:54.750Z,67.43
2019-04-16T03:55:26.206Z,59.00
2019-04-16T03:57:56.091Z,62.37
2019-04-16T04:00:25.968Z,36.83
2019-04-16T04:02:55.642Z,53.33
2019-04-16T04:05:25.573Z,63.93
2019-04-16T04:07:55.710Z,58.33
2019-04-16T04:10:30.768Z,60.33
2019-04-16T04:12:57.416Z,43.83
2019-04-16T04:15:27.385Z,43.50
2019-04-16T04:17:57.302Z,42.93
2019-04-16T04:20:27.464Z,46.18
2019-04-16T04:22:57.878Z,46.77
2019-04-16T04:25:27.715Z,31.80
2019-04-16T04:27:58.008Z,37.43
2019-04-16T04:30:28.828Z,41.77
2019-04-16T04:32:59.550Z,38.47
2019-04-16T04:35:29.770Z,42.93
2019-04-16T04:38:00.834Z,41.73
2019-04-16T04:40:43.811Z,45.50
2019-04-16T04:43:02.635Z,72.03
2019-04-16T04:45:33.038Z,63.10
2019-04-16T04:48:02.723Z,59.60
2019-04-16T04:50:35.395Z,75.62
2019-04-16T04:53:04.109Z,67.33
2019-04-16T04:55:34.617Z,48.70
2019-04-16T04:58:04.357Z,63.53
2019-04-16T05:00:34.120Z,59.77
2019-04-16T05:03:04.003Z,58.95
2019-04-16T05:05:38.537Z,72.93
2019-04-16T05:08:08.467Z,50.07
2019-04-16T05:10:42.817Z,52.23
2019-04-16T05:13:10.050Z,43.87
2019-04-16T05:15:39.757Z,41.73
2019-04-16T05:18:10.955Z,32.00
2019-04-16T05:20:40.856Z,31.67
2019-04-16T05:23:10.699Z,30.87
2019-04-16T05:25:40.759Z,33.33
2019-04-16T05:28:12.114Z,42.83
2019-04-16T05:30:42.431Z,24.53
2019-04-16T05:33:12.180Z,29.70
2019-04-16T05:35:42.402Z,28.20
2019-04-16T05:38:12.436Z,26.47
2019-04-16T05:40:42.345Z,28.60
2019-04-16T05:43:12.260Z,26.67
2019-04-16T05:45:42.351Z,27.17
2019-04-16T05:48:12.313Z,25.73
2019-04-16T05:50:42.229Z,21.83
2019-04-16T05:53:13.565Z,23.50
2019-04-16T05:56:05.580Z,28.63
2019-04-16T05:58:35.746Z,27.87
2019-04-16T06:01:20.517Z,27.63
2019-04-16T06:03:53.207Z,22.80
2019-04-16T06:06:22.015Z,26.43
2019-04-16T06:08:51.937Z,25.13
2019-04-16T06:11:29.106Z,28.27
2019-04-16T06:13:59.176Z,27.20
2019-04-16T06:16:33.812Z,27.80
2019-04-16T06:19:22.748Z,25.37
2019-04-16T06:22:10.271Z,21.53
2019-04-16T06:25:08.358Z,26.27
2019-04-16T06:28:01.186Z,29.33
2019-04-16T06:30:55.750Z,30.47
2019-04-16T06:33:30.948Z,29.17
2019-04-16T06:36:19.905Z,28.20
2019-04-16T06:39:07.577Z,24.63
2019-04-16T06:41:59.589Z,26.30
2019-04-16T06:44:30.770Z,20.87
2019-04-16T06:47:29.034Z,21.97
2019-04-16T06:50:30.252Z,49.47
2019-04-16T06:53:07.342Z,28.77
2019-04-16T06:55:42.980Z,27.17
2019-04-16T06:58:18.796Z,26.07
2019-04-16T07:01:10.559Z,30.63
2019-04-16T07:03:47.555Z,27.73
2019-04-16T07:06:36.287Z,18.17
2019-04-16T07:09:26.464Z,24.97
2019-04-16T07:11:59.141Z,23.50
2019-04-16T07:14:29.134Z,17.13
2019-04-16T07:17:00.212Z,15.83
2019-04-16T07:19:30.700Z,19.83
2019-04-16T07:22:00.689Z,20.50
2019-04-16T07:24:31.621Z,16.37
2019-04-16T07:27:02.248Z,13.32
2019-04-16T07:29:54.773Z,15.03
2019-04-16T07:32:49.421Z,11.12
2019-04-16T07:35:38.101Z,10.60
2019-04-16T07:38:26.833Z,14.75
2019-04-16T07:41:18.307Z,13.40
2019-04-16T07:44:10.761Z,17.47
2019-04-16T07:46:48.646Z,13.17
2019-04-16T07:49:46.699Z,11.30
2019-04-16T07:52:42.045Z,9.73
2019-04-16T07:55:36.599Z,12.63
2019-04-16T07:58:06.460Z,10.60
2019-04-16T08:00:40.381Z,12.50
2019-04-16T08:03:07.658Z,10.87
2019-04-16T08:05:40.680Z,15.33
2019-04-16T08:08:09.161Z,17.63
2019-04-16T08:10:38.877Z,10.28
2019-04-16T08:13:19.511Z,13.32
2019-04-16T08:15:49.228Z,10.15
2019-04-16T08:18:19.237Z,5.53
2019-04-16T08:21:00.367Z,15.03
2019-04-16T08:23:39.407Z,11.28
2019-04-16T08:26:13.027Z,7.67
2019-04-16T08:28:41.166Z,7.55
2019-04-16T08:31:16.066Z,7.33
2019-04-16T08:33:45.852Z,5.40
2019-04-16T08:36:15.588Z,7.75
2019-04-16T08:38:45.886Z,10.65
2019-04-16T08:41:19.718Z,9.63
2019-04-16T08:43:47.829Z,8.25
2019-04-16T08:46:17.913Z,4.78
2019-04-16T08:48:49.226Z,6.20
2019-04-16T08:51:30.395Z,7.12
2019-04-16T08:53:51.388Z,7.75
2019-04-16T08:56:21.414Z,10.03
2019-04-16T08:58:51.349Z,7.40
2019-04-16T09:01:27.110Z,4.55
2019-04-16T09:04:01.280Z,7.40
2019-04-16T09:06:28.560Z,6.70
2019-04-16T09:09:18.481Z,6.87
2019-04-16T09:11:51.820Z,4.60
2019-04-16T09:14:25.346Z,9.18
2019-04-16T09:17:04.540Z,6.12
2019-04-16T09:19:35.723Z,9.07
2019-04-16T09:22:05.547Z,8.20
2019-04-16T09:24:44.403Z,6.72
2019-04-16T09:27:33.844Z,6.43
2019-04-16T09:30:18.973Z,8.60
2019-04-16T09:33:05.905Z,7.10
2019-04-16T09:35:41.140Z,39.30
2019-04-16T09:38:28.651Z,28.83
2019-04-16T09:41:10.640Z,8.40
2019-04-16T09:43:43.720Z,7.00
2019-04-16T09:46:21.103Z,7.40
2019-04-16T09:48:45.751Z,4.03
2019-04-16T09:51:18.670Z,5.30
2019-04-16T09:53:47.106Z,7.27
2019-04-16T09:56:30.323Z,8.60
2019-04-16T09:59:24.966Z,6.67
2019-04-16T10:02:01.768Z,7.25
2019-04-16T10:04:31.746Z,9.20
2019-04-16T10:07:01.591Z,6.80
2019-04-16T10:09:31.453Z,6.53
2019-04-16T10:12:01.497Z,7.08
2019-04-16T10:14:31.375Z,8.13
2019-04-16T10:17:01.313Z,6.97
2019-04-16T10:19:31.317Z,7.22
2019-04-16T10:22:01.666Z,5.60
2019-04-16T10:24:50.675Z,6.67
2019-04-16T10:27:31.238Z,12.85
2019-04-16T10:29:59.735Z,5.55
2019-04-16T10:32:30.277Z,37.30
2019-04-16T10:35:00.333Z,11.57
2019-04-16T10:37:30.509Z,14.23
2019-04-16T10:40:14.415Z,15.05
2019-04-16T10:43:06.151Z,7.12
2019-04-16T10:45:51.183Z,4.83
2019-04-16T10:48:36.775Z,15.90
2019-04-16T10:51:25.607Z,8.98
2019-04-16T10:54:09.956Z,9.60
2019-04-16T10:57:10.009Z,6.78
2019-04-16T10:59:56.941Z,9.90
2019-04-16T11:02:36.666Z,5.42
2019-04-16T11:05:26.375Z,8.17
2019-04-16T11:07:57.553Z,7.63
2019-04-16T11:10:27.813Z,6.50
2019-04-16T11:12:57.876Z,6.57
2019-04-16T11:15:28.248Z,13.17
2019-04-16T11:17:58.392Z,7.70
2019-04-16T11:20:28.925Z,7.47
2019-04-16T11:22:59.023Z,7.77
2019-04-16T11:25:29.214Z,10.17
2019-04-16T11:27:59.652Z,10.48
2019-04-16T11:30:34.839Z,5.97
2019-04-16T11:33:05.158Z,8.53
2019-04-16T11:35:35.295Z,9.78
2019-04-16T11:38:05.417Z,5.53
2019-04-16T11:40:35.342Z,5.67
2019-04-16T11:43:05.923Z,7.57
2019-04-16T11:45:36.058Z,7.50
2019-04-16T11:48:06.405Z,10.93
2019-04-16T11:50:36.448Z,5.73
2019-04-16T11:53:06.441Z,25.03
2019-04-16T11:55:36.238Z,7.10
2019-04-16T11:58:10.704Z,12.93
2019-04-16T12:01:05.748Z,8.43
2019-04-16T12:03:56.260Z,8.63
2019-04-16T12:06:38.381Z,12.60
2019-04-16T12:09:25.305Z,14.75
2019-04-16T12:11:58.774Z,12.88
2019-04-16T12:14:47.675Z,13.40
2019-04-16T12:17:29.993Z,6.35
2019-04-16T12:20:25.142Z,8.38
2019-04-16T12:23:03.233Z,10.00
2019-04-16T12:26:01.315Z,7.25
2019-04-16T12:28:52.713Z,7.65
2019-04-16T12:31:41.679Z,6.87
2019-04-16T12:34:25.579Z,11.15
2019-04-16T12:37:14.886Z,8.23
2019-04-16T12:40:02.298Z,11.12
2019-04-16T12:42:42.201Z,505.60
2019-04-16T12:45:33.998Z,765.88
2019-04-16T12:48:31.628Z,318.23
2019-04-16T12:51:23.647Z,822.67
2019-04-16T12:54:11.051Z,192.37
2019-04-16T12:57:10.671Z,547.27
2019-04-16T12:59:54.761Z,418.67
2019-04-16T13:02:49.468Z,232.20
2019-04-16T13:05:31.225Z,204.68
2019-04-16T13:08:22.922Z,198.75
2019-04-16T13:11:09.091Z,298.93
2019-04-16T13:13:58.581Z,324.67
2019-04-16T13:16:53.410Z,220.87
2019-04-16T13:19:57.817Z,524.40
2019-04-16T13:22:32.024Z,478.45
2019-04-16T13:25:08.922Z,284.45
2019-04-16T13:27:39.680Z,125.10
2019-04-16T13:30:11.700Z,201.45
2019-04-16T13:32:41.848Z,345.53
2019-04-16T13:35:12.077Z,411.47
2019-04-16T13:37:42.289Z,297.75
2019-04-16T13:40:14.381Z,534.55
2019-04-16T13:42:44.398Z,250.60
2019-04-16T13:45:31.978Z,173.45
2019-04-16T13:48:15.747Z,151.47
2019-04-16T13:50:47.547Z,92.10
2019-04-16T13:53:45.477Z,196.32
2019-04-16T13:56:21.937Z,287.15
2019-04-16T13:59:19.928Z,85.93
2019-04-16T14:01:58.756Z,52.80
2019-04-16T14:04:30.479Z,93.15
2019-04-16T14:06:58.652Z,43.37
2019-04-16T14:09:34.257Z,88.40
2019-04-16T14:12:04.952Z,57.38
2019-04-16T14:14:35.111Z,43.20
2019-04-16T14:17:09.747Z,24.07
2019-04-16T14:19:38.040Z,25.32
2019-04-16T14:22:08.811Z,28.70
2019-04-16T14:24:38.841Z,17.17
2019-04-16T14:27:09.790Z,17.12
2019-04-16T14:29:39.826Z,14.58
2019-04-16T14:32:13.973Z,19.60
2019-04-16T14:34:55.538Z,22.40
2019-04-16T14:50:28.235Z,39.33
2019-04-16T14:52:57.869Z,27.90
2019-04-16T14:55:36.340Z,28.73
2019-04-16T14:58:18.122Z,26.68
2019-04-16T15:01:05.114Z,27.30
2019-04-16T15:03:52.715Z,25.93
2019-04-16T15:06:37.175Z,26.27
2019-04-16T15:09:18.361Z,18.77
2019-04-16T15:12:25.177Z,20.00
2019-04-16T15:15:11.718Z,20.48
2019-04-16T15:17:49.264Z,20.70
2019-04-16T15:20:40.730Z,22.42
2019-04-16T15:23:17.805Z,22.82
2019-04-16T15:26:05.118Z,25.72
2019-04-16T15:28:45.779Z,32.78
2019-04-16T15:31:32.671Z,27.55
2019-04-16T15:34:24.429Z,26.10
2019-04-16T15:37:05.628Z,36.15
2019-04-16T15:39:46.363Z,36.88
2019-04-16T15:42:39.520Z,26.35
2019-04-16T15:45:19.457Z,24.82
2019-04-16T15:48:06.475Z,29.65
2019-04-16T15:50:49.172Z,24.47
2019-04-16T15:53:38.650Z,23.83
2019-04-16T15:56:16.433Z,30.70
2019-04-16T15:59:10.955Z,29.65
2019-04-16T16:02:02.124Z,30.25
2019-04-16T16:04:45.155Z,36.30
2019-04-16T16:07:17.431Z,41.65
2019-04-16T16:10:18.285Z,53.87
2019-04-16T16:12:50.974Z,37.25
2019-04-16T16:15:19.118Z,38.73
2019-04-16T16:17:48.645Z,36.55
2019-04-16T16:20:18.272Z,35.47
2019-04-16T16:22:47.751Z,42.67
2019-04-16T16:25:17.234Z,38.45
2019-04-16T16:27:47.332Z,48.83
2019-04-16T16:30:17.151Z,136.90
2019-04-16T16:32:46.691Z,604.45
2019-04-16T16:35:17.811Z,172.30
2019-04-16T16:37:47.859Z,359.98
2019-04-16T16:40:17.318Z,173.78
2019-04-16T16:42:46.898Z,335.73
2019-04-16T16:45:16.431Z,256.25
2019-04-16T16:47:45.916Z,123.00
2019-04-16T16:50:17.088Z,71.12
2019-04-16T16:53:03.471Z,61.15
2019-04-16T16:55:36.617Z,123.90
2019-04-16T16:58:23.814Z,50.45
2019-04-16T17:01:14.040Z,37.35
2019-04-16T17:04:00.894Z,35.68
2019-04-16T17:06:30.433Z,36.73
2019-04-16T17:08:59.942Z,27.07
2019-04-16T17:11:29.501Z,27.20
2019-04-16T17:14:02.292Z,28.50
2019-04-16T17:16:30.178Z,26.52
2019-04-16T17:18:59.622Z,24.50
2019-04-16T17:21:29.332Z,28.05
2019-04-16T17:23:58.835Z,22.97
2019-04-16T17:26:28.383Z,31.17
2019-04-16T17:28:57.838Z,27.93
2019-04-16T17:31:27.459Z,27.05
2019-04-16T17:33:56.979Z,26.95
2019-04-16T17:36:26.595Z,32.03
2019-04-16T17:38:56.217Z,30.08
2019-04-16T17:41:30.746Z,31.82
2019-04-16T17:44:21.928Z,35.05
2019-04-16T17:47:30.539Z,35.73
2019-04-16T17:50:02.476Z,35.60
2019-04-16T17:52:51.176Z,34.70
2019-04-16T17:55:30.725Z,57.48
2019-04-16T17:58:07.825Z,39.38
2019-04-16T18:01:10.458Z,38.15
2019-04-16T18:03:52.996Z,38.38
2019-04-16T18:06:50.813Z,35.43
2019-04-16T18:09:39.690Z,39.42
2019-04-16T18:12:43.312Z,34.40
2019-04-16T18:15:34.818Z,40.03
2019-04-16T18:18:15.753Z,41.40
2019-04-16T18:21:13.182Z,40.58
2019-04-16T18:24:04.427Z,37.05
2019-04-16T18:26:46.345Z,37.98
2019-04-16T18:29:25.021Z,34.73
2019-04-16T18:32:05.109Z,32.60
2019-04-16T18:34:43.490Z,32.28
2019-04-16T18:37:35.355Z,36.75
2019-04-16T18:40:30.516Z,40.23
2019-04-16T18:43:37.520Z,40.37
2019-04-16T18:46:20.748Z,31.40
2019-04-16T18:48:54.417Z,30.23
2019-04-16T18:51:24.181Z,36.15
2019-04-16T18:53:53.976Z,36.83
2019-04-16T18:56:23.517Z,35.70
2019-04-16T18:58:53.149Z,32.25
2019-04-16T19:01:29.670Z,36.15
2019-04-16T19:03:57.726Z,38.98
2019-04-16T19:06:27.244Z,47.10
2019-04-16T19:08:56.967Z,34.18
2019-04-16T19:11:26.391Z,39.17
2019-04-16T19:13:55.869Z,39.00
2019-04-16T19:16:25.669Z,56.20
2019-04-16T19:18:55.284Z,40.45
2019-04-16T19:21:25.215Z,40.20
2019-04-16T19:23:54.683Z,37.83
2019-04-16T19:26:24.227Z,35.10
2019-04-16T19:28:53.950Z,38.80
2019-04-16T19:31:23.939Z,40.88
2019-04-16T19:33:53.653Z,37.78
2019-04-16T19:36:27.267Z,41.53
2019-04-16T19:38:54.630Z,40.03
2019-04-16T19:41:24.527Z,35.80
2019-04-16T19:43:54.686Z,37.90
2019-04-16T19:46:24.174Z,39.23
2019-04-16T19:48:56.662Z,36.03
2019-04-16T19:51:25.360Z,38.65
2019-04-16T19:53:55.041Z,38.63
2019-04-16T19:56:24.583Z,45.08
2019-04-16T19:58:54.104Z,40.67
2019-04-16T20:01:23.906Z,44.13
2019-04-16T20:03:53.815Z,41.08
2019-04-16T20:06:26.188Z,44.33
2019-04-16T20:08:54.425Z,44.05
2019-04-16T20:11:24.308Z,41.77
2019-04-16T20:13:53.786Z,42.58
2019-04-16T20:16:23.535Z,42.70
2019-04-16T20:18:53.050Z,43.73
2019-04-16T20:21:22.522Z,42.50
2019-04-16T20:23:52.398Z,42.80
2019-04-16T20:26:21.838Z,44.10
2019-04-16T20:28:51.634Z,46.53
2019-04-16T20:31:21.155Z,46.30
2019-04-16T20:33:50.616Z,47.83
2019-04-16T20:36:22.730Z,46.68
2019-04-16T20:38:51.410Z,45.40
2019-04-16T20:41:20.919Z,44.95
2019-04-16T20:43:50.374Z,46.05
2019-04-16T20:46:20.059Z,53.35
2019-04-16T20:48:49.546Z,49.23
2019-04-16T20:51:19.042Z,50.00
2019-04-16T20:53:48.822Z,52.38
2019-04-16T20:56:20.696Z,45.55
2019-04-16T20:58:49.385Z,50.15
2019-04-16T21:01:32.764Z,48.83
2019-04-16T21:04:04.625Z,44.90
2019-04-16T21:06:29.020Z,48.25
2019-04-16T21:08:58.793Z,50.17
2019-04-16T21:11:28.163Z,46.20
2019-04-16T21:13:57.611Z,49.15
2019-04-16T21:16:27.183Z,45.98
2019-04-16T21:18:56.660Z,41.70
2019-04-16T21:21:26.107Z,43.55
2019-04-16T21:23:55.804Z,43.05
2019-04-16T21:26:25.207Z,44.63
2019-04-16T21:29:03.511Z,44.83
2019-04-16T21:31:37.136Z,39.60
2019-04-16T21:34:26.297Z,43.42
2019-04-16T21:37:12.880Z,38.90
2019-04-16T21:39:51.287Z,40.88
2019-04-16T21:42:19.122Z,37.65
2019-04-16T21:44:48.692Z,38.55
2019-04-16T21:47:23.144Z,39.90
2019-04-16T21:49:49.774Z,40.35
2019-04-16T21:52:19.271Z,34.10
2019-04-16T21:54:48.999Z,43.55
2019-04-16T21:57:18.442Z,36.35
2019-04-16T21:59:50.291Z,36.90
2019-04-16T22:02:27.759Z,34.15
2019-04-16T22:04:57.372Z,36.10
2019-04-16T22:07:26.872Z,35.83
2019-04-16T22:09:56.278Z,39.98
2019-04-16T22:12:25.735Z,34.70
2019-04-16T22:14:55.963Z,39.18
2019-04-16T22:17:25.662Z,36.03
2019-04-16T22:20:01.302Z,34.40
2019-04-16T22:22:27.721Z,35.17
2019-04-16T22:24:57.870Z,37.83
2019-04-16T22:27:27.363Z,40.40
2019-04-16T22:29:56.802Z,33.23
2019-04-16T22:32:27.142Z,34.98
2019-04-16T22:34:57.352Z,36.23
2019-04-16T22:37:26.994Z,37.85
2019-04-16T22:40:22.540Z,34.53
2019-04-16T22:43:09.116Z,32.88
2019-04-16T22:45:46.959Z,35.13
2019-04-16T22:48:16.568Z,34.75
2019-04-16T22:50:46.036Z,30.17
2019-04-16T22:53:17.195Z,32.55
2019-04-16T22:55:46.649Z,36.28
2019-04-16T22:58:25.582Z,34.75
2019-04-16T23:00:59.491Z,34.13
2019-04-16T23:03:28.915Z,32.20
2019-04-16T23:06:00.972Z,29.33
2019-04-16T23:08:29.910Z,28.07
2019-04-16T23:10:59.380Z,27.77
2019-04-16T23:13:32.274Z,30.32
2019-04-16T23:15:59.942Z,26.40
2019-04-16T23:18:29.768Z,28.77
2019-04-16T23:20:59.262Z,31.97
2019-04-16T23:23:28.706Z,26.30
2019-04-16T23:25:59.524Z,26.70
2019-04-16T23:28:29.547Z,28.62
2019-04-16T23:30:59.763Z,32.42
2019-04-16T23:33:32.544Z,27.03
2019-04-16T23:36:00.392Z,29.27
2019-04-16T23:38:31.622Z,27.35
2019-04-16T23:41:00.866Z,26.87
2019-04-16T23:43:43.961Z,29.42
2019-04-16T23:46:34.607Z,25.45
2019-04-16T23:49:21.420Z,26.15
2019-04-16T23:52:03.574Z,29.10
2019-04-16T23:54:36.141Z,24.23
2019-04-16T23:57:13.878Z,26.62
